Time;durP1;ratioP1;P1;durP2;ratioP2;P2;SDS_P1;SDS_P2;PMS_P1;PMS_P2;Temp;Humidity;BMP_temperature;BMP_pressure;BME280_temperature;BME280_humidity;BME280_pressure;Samples;Min_cycle;Max_cycle;Signal;HPM_P1;HPM_P2
2024/03/23 00:01:41;;;;;;;27.85;24.98;;;13.00;72.80;;;;;;4946330;28;112695;-55
2024/03/23 00:04:08;;;;;;;30.35;27.10;;;12.90;72.90;;;;;;4941379;28;113206;-55
2024/03/23 00:06:35;;;;;;;30.63;26.65;;;12.90;73.30;;;;;;4945244;28;113700;-55
2024/03/23 00:09:01;;;;;;;30.50;26.92;;;12.90;73.60;;;;;;4943437;28;112893;-56
2024/03/23 00:11:28;;;;;;;27.58;24.88;;;12.90;73.30;;;;;;4945582;28;112630;-55
2024/03/23 00:13:55;;;;;;;29.58;26.48;;;13.10;72.60;;;;;;4944041;28;113813;-55
2024/03/23 00:16:22;;;;;;;28.85;25.05;;;13.00;73.10;;;;;;4942652;28;112744;-56
2024/03/23 00:18:51;;;;;;;25.25;22.77;;;12.90;73.70;;;;;;4946514;28;112926;-55
2024/03/23 00:21:17;;;;;;;30.65;23.83;;;12.90;73.60;;;;;;4938453;28;112658;-55
2024/03/23 00:23:44;;;;;;;25.88;23.17;;;12.90;73.80;;;;;;4944909;28;114230;-55
2024/03/23 00:26:10;;;;;;;26.35;22.95;;;12.90;73.90;;;;;;4941449;28;114107;-55
2024/03/23 00:28:37;;;;;;;26.55;23.40;;;12.90;73.50;;;;;;4943990;28;112827;-55
2024/03/23 00:31:03;;;;;;;25.73;23.10;;;13.00;72.90;;;;;;4938959;28;113088;-55
2024/03/23 00:33:30;;;;;;;26.15;22.40;;;12.80;73.70;;;;;;4949019;28;113341;-55
2024/03/23 00:35:57;;;;;;;28.00;22.52;;;12.80;73.90;;;;;;4948748;28;114677;-55
2024/03/23 00:38:24;;;;;;;24.20;21.75;;;12.70;73.90;;;;;;4950059;28;112602;-55
2024/03/23 00:40:51;;;;;;;25.15;22.45;;;12.60;74.60;;;;;;4949478;28;112649;-55
2024/03/23 00:43:18;;;;;;;24.65;21.95;;;12.40;75.10;;;;;;4948860;28;114157;-55
2024/03/23 00:45:47;;;;;;;24.60;22.02;;;12.60;74.50;;;;;;4948719;28;114059;-55
2024/03/23 00:48:14;;;;;;;27.85;23.23;;;12.60;74.20;;;;;;4949722;28;112967;-55
2024/03/23 00:50:41;;;;;;;24.67;22.05;;;12.60;74.00;;;;;;4935927;28;114251;-55
2024/03/23 00:53:08;;;;;;;24.92;22.23;;;12.60;74.20;;;;;;4948832;28;113215;-55
2024/03/23 00:55:33;;;;;;;25.10;22.00;;;12.60;74.20;;;;;;4948561;28;113646;-55
2024/03/23 00:57:59;;;;;;;22.33;20.15;;;12.70;73.30;;;;;;4949863;28;112756;-55
2024/03/23 01:00:25;;;;;;;22.90;20.67;;;12.10;74.60;;;;;;4949629;28;113125;-54
2024/03/23 01:02:50;;;;;;;28.08;20.27;;;11.80;75.90;;;;;;4948223;28;114113;-55
2024/03/23 01:05:16;;;;;;;22.27;20.10;;;11.90;76.00;;;;;;4948666;28;112830;-57
2024/03/23 01:07:42;;;;;;;24.45;20.83;;;11.90;75.50;;;;;;4947751;28;114785;-54
2024/03/23 01:10:07;;;;;;;22.60;20.23;;;12.00;75.10;;;;;;4931545;28;112889;-54
2024/03/23 01:12:33;;;;;;;22.90;20.50;;;12.00;74.60;;;;;;4938874;28;115468;-55
2024/03/23 01:14:59;;;;;;;22.67;20.27;;;11.90;75.30;;;;;;4948252;28;113907;-55
2024/03/23 01:17:24;;;;;;;23.52;20.92;;;12.00;75.20;;;;;;4934800;28;112689;-55
2024/03/23 01:19:50;;;;;;;23.45;21.08;;;12.00;74.90;;;;;;4947379;28;112917;-55
2024/03/23 01:22:16;;;;;;;23.85;21.38;;;12.10;74.80;;;;;;4948434;28;113669;-54
2024/03/23 01:24:41;;;;;;;24.38;21.88;;;12.00;75.10;;;;;;4941096;28;112686;-55
2024/03/23 01:27:08;;;;;;;23.70;21.20;;;12.00;74.80;;;;;;4949893;28;112516;-55
2024/03/23 01:29:34;;;;;;;24.35;21.95;;;11.90;75.00;;;;;;4942490;28;113247;-55
2024/03/23 01:31:59;;;;;;;23.88;20.98;;;11.90;75.20;;;;;;4947987;28;113479;-55
2024/03/23 01:34:25;;;;;;;26.83;21.75;;;11.80;75.70;;;;;;4947113;28;112785;-55
2024/03/23 01:36:51;;;;;;;27.48;24.63;;;11.80;75.80;;;;;;4949107;28;112564;-54
2024/03/23 01:39:17;;;;;;;28.25;24.45;;;11.90;75.80;;;;;;4948865;28;112748;-55
2024/03/23 01:41:43;;;;;;;27.85;24.88;;;11.90;75.70;;;;;;4948015;28;114948;-55
2024/03/23 01:44:09;;;;;;;29.58;26.13;;;11.90;75.50;;;;;;4943863;28;114533;-55
2024/03/23 01:46:38;;;;;;;30.45;26.30;;;11.90;75.50;;;;;;4939444;28;112579;-55
2024/03/23 01:49:08;;;;;;;30.92;26.65;;;11.90;75.70;;;;;;4948903;28;112844;-55
2024/03/23 01:51:35;;;;;;;33.78;26.63;;;11.90;75.50;;;;;;4947911;28;113247;-55
2024/03/23 01:54:03;;;;;;;30.45;25.83;;;11.90;75.90;;;;;;4947552;28;113726;-55
2024/03/23 01:56:37;;;;;;;29.42;26.33;;;11.90;76.00;;;;;;4948869;28;112576;-55
2024/03/23 01:59:05;;;;;;;32.75;26.30;;;11.90;75.60;;;;;;4948514;28;112731;-54
2024/03/23 02:01:31;;;;;;;35.42;26.98;;;11.80;75.60;;;;;;4947753;28;113651;-55
2024/03/23 02:03:57;;;;;;;29.45;26.25;;;11.80;75.90;;;;;;4947611;28;113678;-55
2024/03/23 02:06:24;;;;;;;30.38;26.73;;;11.90;75.60;;;;;;4948685;28;112812;-55
2024/03/23 02:08:50;;;;;;;30.08;26.60;;;11.80;76.00;;;;;;4948700;28;112671;-54
2024/03/23 02:11:16;;;;;;;31.85;26.60;;;11.80;76.10;;;;;;4947531;28;114063;-55
2024/03/23 02:13:41;;;;;;;31.23;26.35;;;11.90;75.50;;;;;;4947674;28;112795;-55
2024/03/23 02:16:07;;;;;;;30.17;26.35;;;11.90;75.40;;;;;;4948687;28;112873;-55
2024/03/23 02:18:33;;;;;;;30.60;26.38;;;11.80;75.80;;;;;;4948551;28;112825;-55
2024/03/23 02:20:59;;;;;;;32.13;27.17;;;11.60;76.20;;;;;;4947388;28;114744;-54
2024/03/23 02:23:25;;;;;;;30.13;26.92;;;11.70;76.30;;;;;;4947370;28;112819;-54
2024/03/23 02:25:51;;;;;;;31.48;27.33;;;11.60;76.40;;;;;;4948822;28;112619;-55
2024/03/23 02:28:19;;;;;;;31.08;26.92;;;11.50;76.70;;;;;;4948240;28;112852;-55
2024/03/23 02:30:45;;;;;;;32.85;27.17;;;11.70;76.10;;;;;;4933523;28;113284;-55
2024/03/23 02:33:11;;;;;;;33.67;28.52;;;11.90;75.20;;;;;;4947309;28;113085;-55
2024/03/23 02:35:37;;;;;;;33.60;29.55;;;11.70;75.40;;;;;;4948206;28;112837;-55
2024/03/23 02:38:03;;;;;;;35.92;30.58;;;11.60;75.70;;;;;;4946960;28;112758;-55
2024/03/23 02:40:28;;;;;;;34.60;29.83;;;11.60;75.90;;;;;;4947042;28;113145;-55
2024/03/23 02:42:54;;;;;;;38.75;30.23;;;11.70;75.60;;;;;;4946964;28;112736;-56
2024/03/23 02:45:20;;;;;;;37.22;32.33;;;11.70;75.40;;;;;;4948317;28;112561;-55
2024/03/23 02:47:46;;;;;;;35.30;31.67;;;11.70;75.30;;;;;;4951434;28;112725;-55
2024/03/23 02:50:12;;;;;;;38.83;32.83;;;11.70;75.10;;;;;;4950584;28;114785;-55
2024/03/23 02:52:37;;;;;;;40.70;32.35;;;11.50;75.70;;;;;;4950482;28;113658;-55
2024/03/23 02:55:03;;;;;;;36.90;31.95;;;11.40;75.60;;;;;;4951765;28;113043;-56
2024/03/23 02:57:29;;;;;;;40.78;31.50;;;11.60;75.10;;;;;;4951343;28;112615;-54
2024/03/23 02:59:55;;;;;;;38.88;32.25;;;11.60;75.20;;;;;;4950476;28;114473;-55
2024/03/23 03:02:21;;;;;;;41.05;32.60;;;11.50;75.00;;;;;;4950423;28;112865;-55
2024/03/23 03:04:47;;;;;;;34.92;30.77;;;11.50;74.90;;;;;;4951425;28;112821;-55
2024/03/23 03:07:13;;;;;;;36.50;31.55;;;11.50;74.80;;;;;;4948191;28;112735;-55
2024/03/23 03:09:39;;;;;;;38.35;32.97;;;11.60;74.60;;;;;;4929943;28;113166;-55
2024/03/23 03:12:06;;;;;;;40.13;31.98;;;11.40;75.00;;;;;;4930371;28;113629;-55
2024/03/23 03:14:32;;;;;;;36.58;31.90;;;11.30;75.60;;;;;;4931687;28;113036;-55
2024/03/23 03:16:58;;;;;;;38.00;31.80;;;11.30;75.60;;;;;;4931943;28;112719;-54
2024/03/23 03:19:23;;;;;;;35.85;31.88;;;11.30;75.70;;;;;;4930795;28;113180;-55
2024/03/23 03:21:49;;;;;;;34.80;31.02;;;11.40;75.50;;;;;;4930753;28;113217;-55
2024/03/23 03:24:15;;;;;;;34.13;30.27;;;11.40;75.40;;;;;;4931663;28;112778;-55
2024/03/23 03:26:40;;;;;;;36.92;30.88;;;11.30;75.30;;;;;;4931767;28;112857;-55
2024/03/23 03:29:06;;;;;;;38.10;30.85;;;11.20;75.70;;;;;;4930735;28;113475;-54
2024/03/23 03:31:32;;;;;;;36.67;31.35;;;11.30;75.70;;;;;;4930587;28;112626;-54
2024/03/23 03:33:58;;;;;;;35.22;30.38;;;11.40;75.50;;;;;;4931562;28;114196;-55
2024/03/23 03:36:23;;;;;;;34.08;30.27;;;11.20;75.90;;;;;;4931637;28;112707;-55
2024/03/23 03:38:49;;;;;;;33.50;30.00;;;11.10;76.20;;;;;;4930420;28;113411;-55
2024/03/23 03:41:15;;;;;;;34.72;31.20;;;11.20;76.00;;;;;;4930202;28;112728;-55
2024/03/23 03:43:41;;;;;;;36.17;32.30;;;11.20;76.30;;;;;;4930910;28;112963;-55
2024/03/23 03:46:08;;;;;;;32.42;29.10;;;11.20;76.10;;;;;;4931664;28;112757;-54
2024/03/23 03:48:33;;;;;;;33.97;30.23;;;11.20;76.00;;;;;;4930195;28;113166;-55
2024/03/23 03:51:00;;;;;;;38.53;30.48;;;11.30;75.80;;;;;;4928898;28;114260;-54
2024/03/23 03:53:26;;;;;;;32.63;29.35;;;11.40;75.60;;;;;;4931160;28;112548;-54
2024/03/23 03:55:52;;;;;;;33.28;29.67;;;11.40;75.70;;;;;;4931067;28;112657;-54
2024/03/23 03:58:17;;;;;;;32.63;29.17;;;11.40;75.60;;;;;;4929581;28;113389;-54
2024/03/23 04:00:43;;;;;;;35.08;31.33;;;11.30;76.10;;;;;;4930204;28;112859;-54
2024/03/23 04:03:09;;;;;;;34.60;30.33;;;11.20;76.20;;;;;;4930903;28;112691;-53
2024/03/23 04:05:34;;;;;;;33.75;30.08;;;11.30;76.00;;;;;;4930921;28;112735;-54
2024/03/23 04:08:00;;;;;;;34.90;30.45;;;11.40;75.60;;;;;;4930086;28;113174;-54
2024/03/23 04:10:26;;;;;;;36.60;32.70;;;11.40;75.60;;;;;;4929524;28;114021;-54
2024/03/23 04:12:53;;;;;;;35.55;31.60;;;11.30;75.90;;;;;;4930925;28;112964;-55
2024/03/23 04:15:19;;;;;;;35.47;31.48;;;11.30;76.00;;;;;;4930802;28;112867;-54
2024/03/23 04:17:45;;;;;;;36.33;31.05;;;11.30;76.50;;;;;;4929749;28;113487;-55
2024/03/23 04:20:13;;;;;;;36.45;32.05;;;11.20;76.60;;;;;;4929685;28;113767;-54
2024/03/23 04:22:39;;;;;;;36.15;32.22;;;11.30;76.60;;;;;;4930491;28;112855;-55
2024/03/23 04:25:10;;;;;;;37.08;33.20;;;11.20;77.00;;;;;;4930630;28;113301;-54
2024/03/23 04:27:39;;;;;;;37.75;32.03;;;11.20;77.10;;;;;;4930371;28;113459;-54
2024/03/23 04:30:10;;;;;;;36.50;32.55;;;11.10;77.10;;;;;;4929718;28;112908;-53
2024/03/23 04:32:36;;;;;;;37.92;33.05;;;11.20;77.00;;;;;;4930791;28;112708;-55
2024/03/23 04:35:02;;;;;;;36.28;32.53;;;11.30;76.60;;;;;;4930300;28;113087;-54
2024/03/23 04:37:28;;;;;;;35.83;31.75;;;11.30;76.70;;;;;;4929568;28;113621;-53
2024/03/23 04:39:54;;;;;;;36.67;32.78;;;11.20;76.90;;;;;;4929268;28;112741;-54
2024/03/23 04:42:20;;;;;;;40.25;34.05;;;11.10;77.20;;;;;;4930655;28;112499;-55
2024/03/23 04:44:45;;;;;;;39.13;33.35;;;11.10;77.30;;;;;;4928807;28;112801;-54
2024/03/23 04:47:11;;;;;;;36.97;33.00;;;11.10;77.50;;;;;;4929242;28;115336;-55
2024/03/23 04:49:37;;;;;;;37.65;33.55;;;11.10;77.30;;;;;;4929452;28;113828;-55
2024/03/23 04:52:05;;;;;;;40.50;33.10;;;11.20;77.40;;;;;;4930322;28;113307;-55
2024/03/23 04:54:34;;;;;;;36.55;32.65;;;11.20;77.40;;;;;;4930316;28;112678;-55
2024/03/23 04:57:00;;;;;;;38.47;33.28;;;11.30;77.30;;;;;;4929073;28;113242;-55
2024/03/23 04:59:25;;;;;;;38.05;34.00;;;11.30;77.10;;;;;;4927688;28;114846;-55
2024/03/23 05:01:51;;;;;;;40.05;35.03;;;11.30;77.40;;;;;;4930309;28;114090;-55
2024/03/23 05:04:17;;;;;;;39.63;35.40;;;11.30;77.40;;;;;;4930320;28;112771;-54
2024/03/23 05:06:43;;;;;;;38.55;34.45;;;11.30;77.20;;;;;;4929217;28;113220;-54
2024/03/23 05:09:11;;;;;;;37.42;33.50;;;11.20;77.40;;;;;;4928244;28;112719;-54
2024/03/23 05:11:41;;;;;;;37.50;33.47;;;11.30;77.50;;;;;;4929839;28;112656;-56
2024/03/23 05:14:07;;;;;;;38.83;33.60;;;11.30;77.20;;;;;;4929998;28;112702;-54
2024/03/23 05:16:33;;;;;;;38.85;34.70;;;11.30;77.20;;;;;;4929049;28;113225;-55
2024/03/23 05:18:59;;;;;;;37.80;32.83;;;11.20;77.20;;;;;;4929114;28;113058;-54
2024/03/23 05:21:24;;;;;;;38.95;34.17;;;11.30;77.50;;;;;;4929727;28;113118;-54
2024/03/23 05:23:51;;;;;;;39.97;33.83;;;11.40;77.10;;;;;;4929911;28;112681;-54
2024/03/23 05:26:17;;;;;;;40.60;35.67;;;11.40;76.90;;;;;;4929165;28;113206;-55
2024/03/23 05:28:43;;;;;;;46.20;36.05;;;11.40;77.00;;;;;;4928954;28;112793;-55
2024/03/23 05:31:09;;;;;;;40.58;36.13;;;11.40;76.70;;;;;;4929873;28;112782;-56
2024/03/23 05:33:38;;;;;;;41.67;36.05;;;11.40;76.60;;;;;;4929796;28;112637;-55
2024/03/23 05:36:04;;;;;;;40.00;35.05;;;11.40;77.20;;;;;;4928716;28;113197;-55
2024/03/23 05:38:30;;;;;;;38.63;33.67;;;11.40;77.10;;;;;;4928483;28;112886;-54
2024/03/23 05:41:00;;;;;;;39.30;33.20;;;11.30;77.50;;;;;;4929420;28;112629;-54
2024/03/23 05:43:26;;;;;;;38.15;33.05;;;11.30;77.80;;;;;;4929148;28;113110;-55
2024/03/23 05:45:59;;;;;;;41.65;34.95;;;11.30;77.80;;;;;;4928752;28;113174;-55
2024/03/23 05:48:26;;;;;;;39.90;34.40;;;11.40;77.70;;;;;;4928040;28;114655;-55
2024/03/23 05:50:52;;;;;;;39.20;34.78;;;11.40;77.30;;;;;;4929443;28;112808;-55
2024/03/23 05:53:20;;;;;;;39.00;33.58;;;11.50;77.40;;;;;;4929406;28;112807;-55
2024/03/23 05:55:47;;;;;;;41.63;34.17;;;11.40;77.20;;;;;;4928259;28;114455;-54
2024/03/23 05:58:14;;;;;;;44.38;33.28;;;11.50;77.20;;;;;;4928508;28;112773;-55
2024/03/23 06:00:40;;;;;;;44.00;34.42;;;11.60;77.00;;;;;;4929216;28;112796;-55
2024/03/23 06:03:06;;;;;;;43.17;36.00;;;11.60;77.10;;;;;;4928992;28;112864;-55
2024/03/23 06:05:32;;;;;;;38.35;34.25;;;11.80;76.80;;;;;;4928053;28;113410;-55
2024/03/23 06:07:57;;;;;;;39.20;34.08;;;11.90;76.30;;;;;;4928435;28;112778;-53
2024/03/23 06:10:23;;;;;;;37.42;33.28;;;12.00;76.10;;;;;;4929203;28;112679;-55
2024/03/23 06:12:51;;;;;;;38.15;32.88;;;12.10;75.90;;;;;;4929318;28;113026;-55
2024/03/23 06:15:20;;;;;;;38.75;33.67;;;12.20;75.90;;;;;;4927926;28;114565;-55
2024/03/23 06:17:46;;;;;;;40.42;33.53;;;12.10;76.00;;;;;;4927753;28;114007;-54
2024/03/23 06:20:12;;;;;;;39.72;32.45;;;12.20;75.80;;;;;;4928925;28;112738;-54
2024/03/23 06:22:38;;;;;;;36.88;32.35;;;12.10;76.40;;;;;;4927220;28;112948;-55
2024/03/23 06:25:05;;;;;;;36.88;32.92;;;12.10;76.30;;;;;;4926619;28;114526;-55
2024/03/23 06:27:32;;;;;;;34.70;30.45;;;12.20;76.10;;;;;;4928314;28;113806;-55
2024/03/23 06:29:58;;;;;;;36.97;32.97;;;12.30;76.00;;;;;;4928892;28;112779;-54
2024/03/23 06:32:23;;;;;;;35.63;31.50;;;12.40;75.90;;;;;;4929046;28;112634;-55
2024/03/23 06:34:49;;;;;;;36.38;30.90;;;12.50;75.80;;;;;;4927772;28;113341;-55
2024/03/23 06:37:15;;;;;;;36.92;32.00;;;12.70;75.70;;;;;;4927940;28;112989;-54
2024/03/23 06:39:40;;;;;;;47.85;39.88;;;12.60;75.70;;;;;;4928346;28;112823;-54
2024/03/23 06:42:08;;;;;;;45.03;37.58;;;12.90;75.60;;;;;;4929155;28;113015;-55
2024/03/23 06:44:34;;;;;;;46.45;35.00;;;13.10;75.10;;;;;;4927560;28;113195;-55
2024/03/23 06:46:59;;;;;;;37.45;32.85;;;13.20;75.10;;;;;;4927778;28;113159;-55
2024/03/23 06:49:25;;;;;;;39.70;33.22;;;13.20;75.00;;;;;;4928547;28;112750;-55
2024/03/23 06:51:51;;;;;;;35.97;32.00;;;13.40;74.60;;;;;;4928585;28;112742;-55
2024/03/23 06:54:18;;;;;;;38.03;32.38;;;13.60;74.40;;;;;;4927584;28;114224;-55
2024/03/23 06:56:46;;;;;;;38.17;31.80;;;13.90;74.00;;;;;;4927610;28;112662;-55
2024/03/23 06:59:12;;;;;;;35.03;30.27;;;14.00;73.60;;;;;;4926976;28;112974;-55
2024/03/23 07:01:38;;;;;;;37.25;30.63;;;14.30;73.20;;;;;;4928787;28;112880;-55
2024/03/23 07:04:04;;;;;;;34.95;29.73;;;14.50;72.80;;;;;;4928808;28;113776;-54
2024/03/23 07:06:31;;;;;;;34.47;30.52;;;14.70;72.10;;;;;;4935974;28;112644;-56
2024/03/23 07:08:56;;;;;;;34.30;30.58;;;14.90;71.20;;;;;;4934627;28;112933;-54
2024/03/23 07:11:23;;;;;;;35.95;29.73;;;15.10;71.00;;;;;;4931376;28;113742;-53
2024/03/23 07:13:54;;;;;;;36.20;29.15;;;15.30;70.90;;;;;;4930207;28;114500;-55
2024/03/23 07:16:20;;;;;;;37.50;30.20;;;15.40;69.80;;;;;;4931499;28;114411;-55
2024/03/23 07:18:46;;;;;;;36.50;31.48;;;15.40;70.00;;;;;;4928380;28;112537;-55
2024/03/23 07:21:12;;;;;;;34.53;29.17;;;15.20;70.10;;;;;;4928135;28;112729;-55
2024/03/23 07:23:41;;;;;;;32.15;28.60;;;15.30;70.40;;;;;;4927241;28;113182;-55
2024/03/23 07:26:07;;;;;;;33.45;29.65;;;15.20;70.60;;;;;;4927515;28;114599;-55
2024/03/23 07:28:35;;;;;;;31.20;27.77;;;15.30;70.30;;;;;;4928195;28;112598;-55
2024/03/23 07:31:18;;;;;;;31.75;28.20;;;15.40;70.00;;;;;;4928300;28;112720;-55
2024/03/23 07:33:45;;;;;;;32.53;29.10;;;15.50;70.20;;;;;;4928782;28;114508;-55
2024/03/23 07:36:11;;;;;;;33.28;29.73;;;15.40;69.80;;;;;;4930354;28;113774;-56
2024/03/23 07:38:37;;;;;;;33.55;28.98;;;15.40;69.70;;;;;;4931423;28;112801;-55
2024/03/23 07:41:10;;;;;;;34.67;29.17;;;15.60;69.10;;;;;;4931287;28;113039;-55
2024/03/23 07:43:38;;;;;;;34.60;28.50;;;15.60;69.00;;;;;;4929919;28;115048;-55
2024/03/23 07:46:04;;;;;;;33.22;29.02;;;15.60;69.00;;;;;;4930247;28;114072;-55
2024/03/23 07:48:31;;;;;;;31.30;27.95;;;15.60;69.40;;;;;;4930984;28;112777;-54
2024/03/23 07:51:04;;;;;;;39.03;28.63;;;15.70;69.60;;;;;;4931323;28;112749;-55
2024/03/23 07:53:31;;;;;;;30.77;27.38;;;15.60;69.70;;;;;;4929948;28;113744;-54
2024/03/23 07:56:10;;;;;;;35.38;28.23;;;15.70;69.90;;;;;;4930126;28;112901;-55
2024/03/23 07:58:36;;;;;;;34.60;29.35;;;15.70;70.00;;;;;;4931109;28;112895;-54
2024/03/23 08:01:07;;;;;;;32.42;28.50;;;15.80;69.80;;;;;;4931378;28;112652;-54
2024/03/23 08:03:37;;;;;;;32.20;28.80;;;15.80;69.60;;;;;;4929849;28;113142;-54
2024/03/23 08:06:14;;;;;;;31.73;27.90;;;15.90;69.20;;;;;;4930060;28;112513;-53
2024/03/23 08:08:41;;;;;;;30.38;27.10;;;16.20;68.80;;;;;;4930666;28;112793;-53
2024/03/23 08:11:07;;;;;;;30.48;27.17;;;16.50;68.40;;;;;;4929662;28;112939;-56
2024/03/23 08:13:34;;;;;;;30.70;27.50;;;16.70;67.50;;;;;;4929780;28;115068;-55
2024/03/23 08:16:02;;;;;;;30.02;27.05;;;16.70;67.70;;;;;;4929568;28;114473;-55
2024/03/23 08:18:28;;;;;;;31.67;28.08;;;16.80;67.10;;;;;;4930803;28;112758;-55
2024/03/23 08:21:06;;;;;;;31.95;28.27;;;16.90;66.70;;;;;;4930951;28;112781;-55
2024/03/23 08:23:35;;;;;;;32.58;29.15;;;16.90;66.80;;;;;;4929651;28;113251;-55
2024/03/23 08:26:02;;;;;;;38.00;33.15;;;17.00;66.90;;;;;;4946807;28;113908;-55
2024/03/23 08:28:28;;;;;;;30.08;26.88;;;17.30;66.20;;;;;;4919647;28;113384;-55
2024/03/23 08:30:55;;;;;;;29.92;26.83;;;17.60;65.20;;;;;;4931713;28;113063;-55
2024/03/23 08:33:21;;;;;;;30.05;26.95;;;17.80;64.80;;;;;;4931452;28;113254;-55
2024/03/23 08:36:15;;;;;;;29.98;26.73;;;17.90;64.80;;;;;;4941467;28;113303;-55
2024/03/23 08:38:41;;;;;;;31.15;27.85;;;18.10;63.80;;;;;;4948114;28;113352;-55
2024/03/23 08:41:08;;;;;;;30.77;26.25;;;18.00;63.90;;;;;;4946456;28;112949;-55
2024/03/23 08:43:39;;;;;;;30.17;26.90;;;18.10;63.30;;;;;;4943621;28;113672;-55
2024/03/23 08:46:09;;;;;;;28.90;25.88;;;18.10;63.20;;;;;;4941359;28;114327;-55
2024/03/23 08:48:35;;;;;;;29.67;26.50;;;18.30;63.60;;;;;;4945687;28;113459;-55
2024/03/23 08:51:06;;;;;;;30.85;27.52;;;18.70;62.60;;;;;;4945379;28;112733;-55
2024/03/23 08:53:32;;;;;;;30.77;27.50;;;18.90;61.20;;;;;;4940829;28;114421;-55
2024/03/23 08:55:59;;;;;;;32.40;28.23;;;19.10;60.30;;;;;;4944497;28;114324;-55
2024/03/23 08:58:25;;;;;;;31.08;27.77;;;19.10;60.40;;;;;;4941468;28;112940;-55
2024/03/23 09:00:52;;;;;;;31.83;28.45;;;19.40;60.20;;;;;;4948792;28;112814;-55
2024/03/23 09:03:18;;;;;;;33.55;30.15;;;19.60;59.70;;;;;;4942488;28;113814;-56
2024/03/23 09:05:44;;;;;;;35.35;31.52;;;19.80;58.20;;;;;;4944250;28;113159;-55
2024/03/23 09:08:10;;;;;;;38.40;34.50;;;19.80;57.40;;;;;;4945488;28;113121;-55
2024/03/23 09:10:39;;;;;;;36.90;32.80;;;19.90;56.40;;;;;;4942826;28;112788;-55
2024/03/23 09:13:05;;;;;;;42.25;33.28;;;19.90;57.10;;;;;;4944811;28;113159;-55
2024/03/23 09:15:35;;;;;;;38.88;34.67;;;19.90;56.80;;;;;;4939733;28;116544;-55
2024/03/23 09:18:01;;;;;;;40.42;36.05;;;20.10;55.70;;;;;;4931629;28;112918;-55
2024/03/23 09:20:27;;;;;;;40.15;36.15;;;20.30;54.50;;;;;;4930124;28;112680;-55
2024/03/23 09:22:52;;;;;;;40.22;36.03;;;20.40;53.90;;;;;;4928744;28;113226;-54
2024/03/23 09:25:18;;;;;;;39.35;35.30;;;20.70;52.10;;;;;;4928491;28;115030;-54
2024/03/23 09:27:47;;;;;;;40.35;36.03;;;20.80;53.00;;;;;;4930262;28;112545;-55
2024/03/23 09:30:13;;;;;;;39.28;35.03;;;20.90;52.50;;;;;;4929682;28;113167;-54
2024/03/23 09:32:39;;;;;;;38.58;34.45;;;20.80;52.20;;;;;;4928768;28;115327;-54
2024/03/23 09:35:05;;;;;;;37.72;33.72;;;20.90;52.30;;;;;;4928398;28;113694;-54
2024/03/23 09:37:31;;;;;;;35.53;31.60;;;21.10;52.70;;;;;;4929508;28;112977;-55
2024/03/23 09:39:56;;;;;;;38.90;32.63;;;21.60;51.50;;;;;;4929089;28;112793;-54
2024/03/23 09:42:22;;;;;;;36.60;31.88;;;21.80;51.10;;;;;;4928402;28;114436;-55
2024/03/23 09:44:50;;;;;;;37.13;32.70;;;21.90;50.40;;;;;;4927035;28;113782;-56
2024/03/23 09:47:17;;;;;;;35.65;31.20;;;21.90;50.10;;;;;;4929273;28;112802;-55
2024/03/23 09:49:43;;;;;;;36.13;32.38;;;22.00;49.90;;;;;;4929672;28;112704;-55
2024/03/23 09:52:09;;;;;;;34.78;31.10;;;21.90;50.20;;;;;;4928235;28;113365;-56
2024/03/23 09:54:35;;;;;;;34.15;30.75;;;21.90;50.00;;;;;;4928348;28;113130;-55
2024/03/23 09:57:01;;;;;;;33.08;29.58;;;22.30;51.00;;;;;;4928575;28;112876;-55
2024/03/23 09:59:26;;;;;;;32.13;28.55;;;22.40;49.10;;;;;;4929292;28;112799;-54
2024/03/23 10:01:55;;;;;;;31.25;27.98;;;22.50;47.60;;;;;;4928109;28;113471;-56
2024/03/23 10:04:40;;;;;;;30.45;27.17;;;22.90;46.70;;;;;;4928054;28;113283;-54
2024/03/23 10:07:20;;;;;;;31.50;28.25;;;22.80;46.90;;;;;;4928994;28;113092;-53
2024/03/23 10:09:52;;;;;;;30.73;27.38;;;22.80;46.60;;;;;;4929283;28;112687;-55
2024/03/23 10:12:19;;;;;;;28.63;25.58;;;22.90;46.10;;;;;;4928085;28;113575;-56
2024/03/23 10:14:46;;;;;;;26.20;23.60;;;23.60;45.80;;;;;;4928140;28;113389;-56
2024/03/23 10:17:19;;;;;;;26.83;23.92;;;24.30;44.20;;;;;;4928750;28;112636;-55
2024/03/23 10:19:51;;;;;;;26.42;23.80;;;24.50;42.70;;;;;;4928872;28;112575;-55
2024/03/23 10:22:17;;;;;;;;;;;24.50;42.80;;;;;;4928340;28;114625;-54
2024/03/23 10:24:43;;;;;;;24.13;21.60;;;25.40;41.10;;;;;;4930156;28;112825;-54
2024/03/23 10:27:09;;;;;;;23.65;21.25;;;25.70;40.90;;;;;;4929891;28;113274;-55
2024/03/23 10:29:35;;;;;;;23.15;20.65;;;26.30;40.50;;;;;;4928726;28;112695;-55
2024/03/23 10:32:11;;;;;;;21.48;19.15;;;29.60;34.60;;;;;;4927870;28;113268;-55
2024/03/23 10:34:38;;;;;;;20.80;18.67;;;31.70;31.10;;;;;;4927901;28;113018;-56
2024/03/23 10:37:05;;;;;;;22.17;20.08;;;31.70;30.70;;;;;;4928888;28;113021;-56
2024/03/23 10:39:38;;;;;;;22.98;20.85;;;33.90;28.50;;;;;;4928568;28;112891;-56
2024/03/23 10:42:05;;;;;;;22.92;20.80;;;35.40;26.80;;;;;;4927845;28;113584;-56
2024/03/23 10:44:32;;;;;;;23.00;20.67;;;36.30;25.60;;;;;;4927505;28;113607;-54
2024/03/23 10:46:59;;;;;;;22.25;20.23;;;36.50;25.50;;;;;;4928611;28;112566;-56
2024/03/23 10:49:35;;;;;;;22.92;20.80;;;37.80;24.60;;;;;;4928636;28;112697;-55
2024/03/23 10:52:05;;;;;;;20.63;19.00;;;38.40;24.10;;;;;;4927554;28;113232;-54
2024/03/23 10:54:32;;;;;;;21.75;19.98;;;39.40;23.40;;;;;;4927147;28;113064;-56
2024/03/23 10:57:07;;;;;;;21.35;19.42;;;39.30;22.90;;;;;;4928604;28;112756;-56
2024/03/23 10:59:34;;;;;;;19.40;17.90;;;38.90;23.80;;;;;;4928522;28;112734;-55
2024/03/23 11:02:02;;;;;;;19.80;18.13;;;40.10;22.90;;;;;;4925922;28;115540;-56
2024/03/23 11:04:38;;;;;;;19.85;18.25;;;41.30;21.70;;;;;;4927497;28;112682;-55
2024/03/23 11:07:23;;;;;;;18.60;17.20;;;41.20;21.80;;;;;;4929247;28;112926;-57
2024/03/23 11:09:52;;;;;;;17.25;15.95;;;41.70;21.90;;;;;;4932052;28;112783;-55
2024/03/23 11:12:21;;;;;;;18.92;17.45;;;42.60;21.00;;;;;;4930588;28;113182;-56
2024/03/23 11:14:50;;;;;;;15.82;14.52;;;42.80;20.90;;;;;;4930810;28;112762;-56
2024/03/23 11:17:20;;;;;;;17.50;16.02;;;43.30;21.00;;;;;;4931633;28;112704;-57
2024/03/23 11:19:55;;;;;;;16.58;15.27;;;43.40;20.70;;;;;;4931422;28;112728;-56
2024/03/23 11:22:39;;;;;;;16.33;15.02;;;44.30;20.50;;;;;;4930484;28;115038;-56
2024/03/23 11:25:25;;;;;;;15.23;14.10;;;43.90;20.30;;;;;;4930621;28;112933;-55
2024/03/23 11:27:52;;;;;;;14.52;13.43;;;43.10;20.60;;;;;;4931941;28;112585;-56
2024/03/23 11:30:23;;;;;;;15.05;13.85;;;43.80;20.60;;;;;;4931680;28;112688;-56
2024/03/23 11:32:51;;;;;;;16.17;14.98;;;43.90;20.80;;;;;;4930544;28;113363;-56
2024/03/23 11:35:35;;;;;;;15.45;14.20;;;43.90;20.30;;;;;;4930515;28;113666;-56
2024/03/23 11:38:04;;;;;;;14.45;13.45;;;43.40;21.10;;;;;;4931466;28;112844;-57
2024/03/23 11:40:30;;;;;;;16.35;14.80;;;43.10;21.10;;;;;;4931143;28;112653;-56
2024/03/23 11:43:01;;;;;;;14.10;13.00;;;40.10;22.90;;;;;;4930411;28;113219;-56
2024/03/23 11:45:28;;;;;;;13.90;12.80;;;41.80;21.40;;;;;;4930203;28;113399;-56
2024/03/23 11:48:14;;;;;;;16.35;15.15;;;43.70;20.40;;;;;;4931567;28;112531;-56
2024/03/23 11:50:44;;;;;;;16.58;15.27;;;43.80;20.20;;;;;;4931491;28;113009;-55
2024/03/23 11:53:19;;;;;;;17.48;16.08;;;42.50;21.20;;;;;;4930074;28;114938;-55
2024/03/23 11:55:52;;;;;;;17.85;16.45;;;42.90;21.10;;;;;;4930169;28;113742;-56
2024/03/23 11:58:22;;;;;;;17.63;16.33;;;42.00;22.00;;;;;;4931283;28;112762;-55
2024/03/23 12:00:59;;;;;;;16.40;15.18;;;43.40;20.80;;;;;;4917868;28;112788;-57
2024/03/23 12:03:28;;;;;;;16.98;15.68;;;43.80;20.50;;;;;;4929972;28;113132;-55
2024/03/23 12:05:55;;;;;;;18.25;16.63;;;43.20;20.30;;;;;;4930053;28;114943;-56
2024/03/23 12:08:24;;;;;;;19.38;17.73;;;42.50;21.50;;;;;;4931047;28;114999;-57
2024/03/23 12:10:51;;;;;;;19.58;17.95;;;43.10;21.20;;;;;;4930843;28;112714;-57
2024/03/23 12:13:21;;;;;;;22.10;20.50;;;38.30;24.30;;;;;;4929810;28;113220;-55
2024/03/23 12:15:49;;;;;;;22.27;20.17;;;32.90;29.50;;;;;;4929620;28;112842;-55
2024/03/23 12:18:15;;;;;;;24.23;22.13;;;34.40;29.30;;;;;;4930487;28;112865;-55
2024/03/23 12:20:41;;;;;;;23.67;21.58;;;32.10;31.30;;;;;;4930542;28;112716;-56